createdAt,value
2022-12-05T00:01:34.674Z,14.34
2022-12-05T00:04:01.017Z,14.32
2022-12-05T00:06:27.312Z,14.71
2022-12-05T00:08:53.571Z,14.99
2022-12-05T00:11:19.924Z,14.56
2022-12-05T00:13:46.173Z,13.91
2022-12-05T00:16:12.457Z,13.62
2022-12-05T00:18:38.725Z,14.10
2022-12-05T00:21:04.975Z,13.90
2022-12-05T00:23:31.217Z,13.59
2022-12-05T00:25:57.480Z,13.67
2022-12-05T00:28:23.734Z,12.76
2022-12-05T00:30:49.987Z,13.14
2022-12-05T00:33:16.252Z,13.20
2022-12-05T00:35:42.505Z,12.95
2022-12-05T00:38:08.783Z,12.93
2022-12-05T00:40:35.049Z,12.60
2022-12-05T00:43:01.311Z,13.19
2022-12-05T00:45:27.584Z,13.57
2022-12-05T00:47:53.832Z,13.56
2022-12-05T00:50:20.078Z,13.91
2022-12-05T00:52:46.357Z,15.10
2022-12-05T00:55:12.611Z,14.80
2022-12-05T00:57:38.863Z,14.58
2022-12-05T01:00:05.147Z,15.19
2022-12-05T01:02:31.418Z,15.41
2022-12-05T01:04:57.686Z,15.15
2022-12-05T01:07:23.947Z,15.59
2022-12-05T01:09:50.208Z,15.91
2022-12-05T01:12:16.502Z,15.48
2022-12-05T01:14:42.750Z,16.23
2022-12-05T01:17:09.082Z,16.82
2022-12-05T01:19:35.401Z,16.47
2022-12-05T01:22:01.645Z,16.34
2022-12-05T01:24:27.930Z,16.14
2022-12-05T01:26:54.191Z,16.09
2022-12-05T01:29:20.547Z,15.65
2022-12-05T01:31:46.926Z,15.60
2022-12-05T01:34:13.190Z,15.54
2022-12-05T01:36:39.472Z,15.78
2022-12-05T01:39:05.737Z,15.84
2022-12-05T01:41:31.989Z,16.40
2022-12-05T01:43:58.239Z,15.83
2022-12-05T01:46:24.566Z,15.88
2022-12-05T01:48:50.904Z,15.87
2022-12-05T01:51:17.174Z,16.26
2022-12-05T01:53:43.434Z,16.64
2022-12-05T01:56:09.720Z,15.74
2022-12-05T01:58:36.001Z,15.97
2022-12-05T02:01:02.359Z,16.15
2022-12-05T02:03:28.687Z,16.26
2022-12-05T02:05:54.950Z,16.91
2022-12-05T02:08:21.285Z,17.18
2022-12-05T02:10:47.623Z,17.05
2022-12-05T02:13:13.913Z,17.02
2022-12-05T02:15:40.164Z,17.17
2022-12-05T02:18:06.403Z,17.02
2022-12-05T02:20:32.676Z,17.66
2022-12-05T02:22:58.975Z,17.69
2022-12-05T02:25:25.237Z,17.71
2022-12-05T02:27:51.495Z,18.14
2022-12-05T02:30:17.733Z,18.15
2022-12-05T02:32:44.004Z,18.28
2022-12-05T02:35:10.255Z,18.52
2022-12-05T02:37:36.533Z,18.72
2022-12-05T02:40:02.914Z,19.37
2022-12-05T02:42:29.161Z,18.28
2022-12-05T02:44:55.427Z,18.66
2022-12-05T02:47:21.690Z,17.94
2022-12-05T02:49:47.943Z,18.34
2022-12-05T02:52:14.215Z,18.79
2022-12-05T02:54:40.475Z,19.00
2022-12-05T02:57:06.826Z,19.00
2022-12-05T02:59:33.112Z,19.42
2022-12-05T03:01:59.354Z,19.02
2022-12-05T03:04:25.686Z,19.46
2022-12-05T03:06:52.015Z,18.72
2022-12-05T03:09:18.257Z,18.34
2022-12-05T03:11:44.563Z,17.75
2022-12-05T03:14:10.833Z,18.49
2022-12-05T03:16:37.179Z,18.29
2022-12-05T03:19:03.475Z,18.62
2022-12-05T03:21:29.749Z,18.36
2022-12-05T03:23:56.022Z,17.50
2022-12-05T03:26:22.313Z,18.24
2022-12-05T03:28:48.586Z,18.17
2022-12-05T03:31:14.921Z,18.11
2022-12-05T03:33:41.286Z,18.16
2022-12-05T03:36:07.541Z,18.18
2022-12-05T03:38:33.825Z,18.18
2022-12-05T03:41:00.105Z,17.29
2022-12-05T03:43:26.361Z,16.64
2022-12-05T03:45:52.677Z,16.32
2022-12-05T03:48:19.001Z,15.75
2022-12-05T03:50:45.246Z,17.09
2022-12-05T03:53:19.760Z,16.55
2022-12-05T03:55:46.872Z,15.71
2022-12-05T03:58:13.150Z,16.29
2022-12-05T04:00:39.416Z,16.47
2022-12-05T04:03:05.762Z,16.22
2022-12-05T04:05:32.205Z,16.03
2022-12-05T04:07:58.515Z,16.06
2022-12-05T04:10:24.808Z,16.52
2022-12-05T04:12:51.077Z,16.88
2022-12-05T04:15:17.356Z,17.51
2022-12-05T04:17:43.636Z,17.03
2022-12-05T04:20:09.898Z,16.50
2022-12-05T04:22:36.160Z,16.90
2022-12-05T04:25:02.408Z,17.06
2022-12-05T04:27:28.689Z,17.52
2022-12-05T04:29:55.277Z,17.18
2022-12-05T04:32:21.681Z,17.89
2022-12-05T04:34:47.938Z,18.07
2022-12-05T04:37:14.207Z,17.56
2022-12-05T04:39:40.490Z,17.83
2022-12-05T04:42:06.793Z,17.39
2022-12-05T04:44:33.072Z,17.80
2022-12-05T04:46:59.354Z,17.36
2022-12-05T04:49:25.644Z,17.70
2022-12-05T04:51:51.920Z,17.42
2022-12-05T04:54:18.188Z,16.93
2022-12-05T04:56:44.549Z,16.81
2022-12-05T04:59:10.817Z,17.21
2022-12-05T05:01:37.139Z,17.54
2022-12-05T05:04:03.471Z,17.28
2022-12-05T05:06:29.752Z,17.15
2022-12-05T05:08:56.018Z,17.46
2022-12-05T05:11:22.279Z,18.30
2022-12-05T05:13:48.536Z,18.38
2022-12-05T05:16:14.868Z,17.71
2022-12-05T05:18:41.194Z,18.15
2022-12-05T05:21:07.449Z,18.05
2022-12-05T05:23:33.718Z,17.70
2022-12-05T05:25:59.978Z,17.19
2022-12-05T05:28:26.255Z,18.88
2022-12-05T05:30:52.569Z,18.31
2022-12-05T05:33:18.905Z,17.69
2022-12-05T05:35:45.187Z,18.20
2022-12-05T05:38:11.437Z,18.02
2022-12-05T05:40:37.707Z,18.01
2022-12-05T05:43:03.980Z,18.30
2022-12-05T05:45:30.238Z,18.53
2022-12-05T05:47:56.513Z,18.36
2022-12-05T05:50:22.781Z,18.19
2022-12-05T05:52:49.053Z,17.89
2022-12-05T05:55:15.305Z,17.45
2022-12-05T05:57:41.592Z,17.73
2022-12-05T06:00:07.956Z,17.99
2022-12-05T06:02:34.343Z,17.74
2022-12-05T06:05:00.664Z,17.57
2022-12-05T06:07:26.928Z,17.45
2022-12-05T06:09:53.208Z,17.78
2022-12-05T06:12:19.466Z,16.94
2022-12-05T06:14:45.726Z,17.16
2022-12-05T06:17:11.981Z,17.14
2022-12-05T06:19:38.271Z,17.91
2022-12-05T06:22:04.544Z,17.95
2022-12-05T06:24:30.830Z,17.94
2022-12-05T06:26:57.084Z,17.79
2022-12-05T06:29:26.208Z,17.13
2022-12-05T06:31:53.820Z,17.95
2022-12-05T06:34:20.141Z,17.99
2022-12-05T06:36:46.426Z,17.25
2022-12-05T06:39:12.701Z,17.29
2022-12-05T06:41:38.972Z,17.40
2022-12-05T06:44:05.244Z,17.71
2022-12-05T06:46:31.532Z,17.73
2022-12-05T06:48:57.810Z,18.25
2022-12-05T06:51:24.061Z,16.82
2022-12-05T06:53:50.319Z,17.13
2022-12-05T06:56:16.601Z,16.60
2022-12-05T06:58:42.850Z,16.98
2022-12-05T07:01:09.206Z,17.89
2022-12-05T07:03:35.559Z,17.91
2022-12-05T07:06:01.834Z,17.98
2022-12-05T07:08:28.083Z,17.92
2022-12-05T07:10:54.454Z,18.26
2022-12-05T07:13:20.722Z,18.53
2022-12-05T07:15:46.992Z,18.65
2022-12-05T07:18:13.281Z,18.09
2022-12-05T07:21:03.877Z,18.73
2022-12-05T07:23:25.788Z,18.79
2022-12-05T07:25:52.065Z,18.45
2022-12-05T07:28:18.311Z,18.27
2022-12-05T07:30:44.587Z,18.84
2022-12-05T07:33:10.892Z,18.85
2022-12-05T07:35:37.152Z,18.86
2022-12-05T07:38:03.430Z,19.81
2022-12-05T07:40:29.691Z,19.70
2022-12-05T07:42:55.937Z,19.61
2022-12-05T07:45:22.187Z,19.88
2022-12-05T07:47:48.480Z,19.42
2022-12-05T07:50:14.805Z,18.41
2022-12-05T07:52:41.075Z,18.90
2022-12-05T07:55:07.337Z,19.12
2022-12-05T07:57:33.600Z,19.49
2022-12-05T08:00:00.064Z,19.45
2022-12-05T08:02:26.671Z,19.35
2022-12-05T08:04:52.969Z,18.83
2022-12-05T08:07:19.237Z,19.02
2022-12-05T08:09:45.517Z,18.02
2022-12-05T08:12:11.864Z,18.39
2022-12-05T08:14:38.133Z,18.64
2022-12-05T08:17:04.439Z,18.71
2022-12-05T08:19:30.727Z,18.86
2022-12-05T08:21:57.007Z,18.77
2022-12-05T08:24:23.273Z,19.27
2022-12-05T08:26:49.556Z,18.49
2022-12-05T08:29:15.833Z,19.16
2022-12-05T08:31:42.116Z,18.95
2022-12-05T08:34:08.372Z,20.02
2022-12-05T08:36:34.641Z,22.14
2022-12-05T08:39:00.923Z,21.16
2022-12-05T08:41:27.194Z,21.12
2022-12-05T08:43:53.466Z,19.42
2022-12-05T08:46:19.785Z,18.63
2022-12-05T08:48:46.123Z,18.27
2022-12-05T08:51:12.387Z,18.96
2022-12-05T08:53:44.102Z,19.02
2022-12-05T08:56:11.033Z,18.38
2022-12-05T08:58:37.306Z,18.23
2022-12-05T09:01:03.622Z,17.58
2022-12-05T09:03:29.923Z,17.62
2022-12-05T09:05:56.175Z,17.63
2022-12-05T09:08:22.500Z,17.52
2022-12-05T09:10:48.803Z,18.15
2022-12-05T09:13:15.073Z,18.95
2022-12-05T09:15:41.414Z,19.19
2022-12-05T09:18:07.709Z,20.01
2022-12-05T09:20:33.977Z,22.16
2022-12-05T09:23:00.241Z,23.34
2022-12-05T09:25:26.511Z,22.89
2022-12-05T09:27:52.754Z,22.82
2022-12-05T09:30:19.107Z,23.63
2022-12-05T09:32:45.408Z,23.91
2022-12-05T09:35:11.681Z,25.33
2022-12-05T09:37:39.702Z,25.63
2022-12-05T09:40:06.427Z,26.31
2022-12-05T09:42:32.710Z,24.58
2022-12-05T09:44:59.233Z,22.61
2022-12-05T09:47:25.705Z,20.75
2022-12-05T09:49:52.020Z,18.76
2022-12-05T09:52:18.265Z,19.13
2022-12-05T09:54:44.586Z,18.33
2022-12-05T09:57:10.872Z,17.87
2022-12-05T09:59:37.150Z,18.01
2022-12-05T10:02:03.451Z,17.57
2022-12-05T10:04:29.809Z,17.25
2022-12-05T10:06:56.129Z,17.92
2022-12-05T10:09:22.397Z,17.67
2022-12-05T10:11:48.687Z,17.75
2022-12-05T10:14:15.058Z,18.00
2022-12-05T10:16:41.391Z,17.89
2022-12-05T10:19:07.685Z,17.66
2022-12-05T10:21:33.981Z,17.58
2022-12-05T10:24:00.302Z,17.49
2022-12-05T10:26:26.577Z,17.11
2022-12-05T10:28:52.872Z,16.54
2022-12-05T10:31:19.242Z,17.03
2022-12-05T10:33:45.563Z,16.46
2022-12-05T10:36:11.822Z,15.65
2022-12-05T10:38:38.095Z,16.17
2022-12-05T10:41:04.372Z,16.48
2022-12-05T10:43:30.653Z,17.16
2022-12-05T10:45:56.933Z,16.71
2022-12-05T10:48:23.230Z,16.60
2022-12-05T10:50:49.522Z,16.26
2022-12-05T10:53:15.817Z,16.62
2022-12-05T10:55:54.756Z,16.13
2022-12-05T10:58:28.424Z,16.41
2022-12-05T11:00:54.734Z,16.47
2022-12-05T11:03:21.659Z,16.00
2022-12-05T11:05:47.954Z,15.93
2022-12-05T11:08:14.348Z,15.84
2022-12-05T11:10:40.661Z,16.04
2022-12-05T11:13:06.941Z,16.32
2022-12-05T11:15:33.206Z,15.78
2022-12-05T11:17:59.485Z,14.98
2022-12-05T11:20:25.750Z,14.45
2022-12-05T11:22:52.042Z,14.02
2022-12-05T11:25:18.295Z,14.26
2022-12-05T11:27:44.648Z,14.55
2022-12-05T11:30:10.918Z,14.57
2022-12-05T11:32:37.173Z,14.63
2022-12-05T11:35:03.449Z,14.95
2022-12-05T11:37:29.711Z,15.49
2022-12-05T11:39:55.986Z,15.93
2022-12-05T11:42:22.250Z,15.24
2022-12-05T11:44:48.501Z,15.78
2022-12-05T11:47:14.881Z,15.74
2022-12-05T11:49:41.199Z,16.56
2022-12-05T11:52:07.494Z,16.80
2022-12-05T11:55:03.941Z,17.26
2022-12-05T11:57:20.030Z,17.04
2022-12-05T11:59:46.296Z,17.14
2022-12-05T12:02:12.625Z,17.04
2022-12-05T12:04:38.946Z,16.58
2022-12-05T12:07:05.215Z,16.32
2022-12-05T12:09:31.489Z,16.26
2022-12-05T12:11:57.741Z,16.56
2022-12-05T12:14:24.025Z,17.09
2022-12-05T12:16:50.354Z,16.24
2022-12-05T12:19:16.696Z,16.68
2022-12-05T12:21:42.936Z,15.55
2022-12-05T12:24:09.227Z,15.80
2022-12-05T12:26:35.502Z,14.93
2022-12-05T12:29:01.800Z,14.36
2022-12-05T12:31:28.073Z,12.98
2022-12-05T12:33:54.409Z,13.41
2022-12-05T12:36:20.676Z,13.91
2022-12-05T12:38:51.102Z,13.22
2022-12-05T12:41:17.787Z,13.16
2022-12-05T12:43:59.377Z,13.46
2022-12-05T12:46:25.749Z,13.21
2022-12-05T12:48:52.025Z,12.69
2022-12-05T12:51:18.327Z,12.90
2022-12-05T12:53:44.595Z,13.25
2022-12-05T12:56:10.849Z,13.46
2022-12-05T12:58:37.157Z,13.26
2022-12-05T13:01:03.515Z,14.03
2022-12-05T13:03:29.821Z,13.47
2022-12-05T13:05:56.094Z,13.77
2022-12-05T13:08:22.485Z,13.46
2022-12-05T13:10:48.810Z,13.42
2022-12-05T13:13:15.077Z,13.33
2022-12-05T13:15:41.370Z,12.83
2022-12-05T13:18:07.621Z,12.84
2022-12-05T13:20:33.938Z,12.18
2022-12-05T13:23:04.743Z,11.96
2022-12-05T13:25:34.052Z,11.14
2022-12-05T13:28:00.333Z,11.52
2022-12-05T13:30:26.599Z,11.08
2022-12-05T13:32:52.858Z,10.09
2022-12-05T13:35:19.119Z,8.98
2022-12-05T13:37:45.407Z,9.03
2022-12-05T13:40:11.672Z,9.91
2022-12-05T13:42:37.947Z,9.08
2022-12-05T13:45:04.232Z,9.63
2022-12-05T13:47:30.505Z,9.57
2022-12-05T13:49:57.102Z,9.29
2022-12-05T13:52:23.642Z,9.12
2022-12-05T13:54:49.901Z,9.49
2022-12-05T13:57:16.512Z,8.60
2022-12-05T13:59:42.821Z,9.29
2022-12-05T14:02:09.171Z,9.30
2022-12-05T14:04:35.551Z,9.27
2022-12-05T14:07:01.825Z,8.90
2022-12-05T14:09:28.123Z,8.77
2022-12-05T14:11:54.382Z,8.07
2022-12-05T14:14:20.647Z,8.18
2022-12-05T14:16:46.983Z,8.34
2022-12-05T14:19:13.249Z,7.58
2022-12-05T14:21:39.499Z,7.83
2022-12-05T14:24:05.773Z,7.48
2022-12-05T14:26:32.116Z,7.75
2022-12-05T14:28:58.370Z,7.65
2022-12-05T14:31:24.613Z,7.75
2022-12-05T14:33:50.910Z,7.64
2022-12-05T14:36:17.193Z,7.86
2022-12-05T14:38:43.455Z,7.84
2022-12-05T14:41:09.737Z,7.92
2022-12-05T14:43:36.021Z,7.22
2022-12-05T14:46:02.344Z,7.14
2022-12-05T14:48:28.623Z,7.16
2022-12-05T14:50:54.876Z,7.39
2022-12-05T14:53:21.159Z,7.38
2022-12-05T14:55:47.397Z,7.37
2022-12-05T14:58:13.633Z,6.91
2022-12-05T15:00:43.756Z,6.52
2022-12-05T15:03:12.810Z,7.13
2022-12-05T15:05:39.086Z,7.50
2022-12-05T15:08:05.402Z,7.09
2022-12-05T15:10:31.686Z,7.58
2022-12-05T15:12:57.950Z,7.67
2022-12-05T15:15:24.281Z,6.89
2022-12-05T15:17:50.599Z,6.75
2022-12-05T15:20:16.873Z,6.80
2022-12-05T15:22:43.144Z,6.64
2022-12-05T15:25:09.417Z,7.01
2022-12-05T15:27:35.791Z,7.03
2022-12-05T15:30:02.102Z,7.49
2022-12-05T15:32:28.669Z,7.60
2022-12-05T15:34:55.020Z,7.94
2022-12-05T15:37:21.285Z,8.22
2022-12-05T15:39:47.543Z,8.25
2022-12-05T15:42:13.819Z,8.33
2022-12-05T15:44:40.090Z,8.78
2022-12-05T15:47:06.341Z,8.32
2022-12-05T15:49:32.653Z,9.52
2022-12-05T15:51:58.926Z,9.56
2022-12-05T15:54:29.098Z,9.57
2022-12-05T15:56:55.565Z,9.83
2022-12-05T15:59:21.853Z,9.86
2022-12-05T16:01:48.288Z,9.57
2022-12-05T16:04:14.582Z,9.66
2022-12-05T16:06:40.926Z,10.10
2022-12-05T16:09:11.336Z,10.52
2022-12-05T16:11:38.139Z,10.66
2022-12-05T16:14:04.499Z,10.99
2022-12-05T16:16:30.803Z,10.27
2022-12-05T16:18:57.144Z,9.77
2022-12-05T16:21:23.417Z,9.57
2022-12-05T16:23:49.669Z,9.26
2022-12-05T16:26:15.910Z,9.30
2022-12-05T16:28:42.258Z,9.10
2022-12-05T16:31:08.556Z,9.36
2022-12-05T16:33:37.705Z,9.63
2022-12-05T16:36:08.167Z,9.12
2022-12-05T16:38:34.420Z,9.30
2022-12-05T16:41:00.670Z,10.27
2022-12-05T16:43:26.941Z,10.07
2022-12-05T16:45:53.195Z,10.25
2022-12-05T16:48:19.477Z,10.14
2022-12-05T16:50:45.732Z,10.84
2022-12-05T16:53:12.012Z,11.36
2022-12-05T16:55:38.302Z,12.20
2022-12-05T16:58:04.549Z,12.92
2022-12-05T17:00:30.807Z,13.62
2022-12-05T17:03:18.453Z,14.04
2022-12-05T17:05:43.428Z,13.95
2022-12-05T17:08:09.748Z,14.22
2022-12-05T17:10:36.083Z,13.72
2022-12-05T17:13:02.377Z,14.93
2022-12-05T17:15:28.660Z,15.89
2022-12-05T17:17:54.980Z,15.45
2022-12-05T17:20:21.247Z,14.51
2022-12-05T17:22:47.487Z,14.01
2022-12-05T17:25:13.768Z,12.97
2022-12-05T17:27:40.045Z,12.57
2022-12-05T17:30:06.294Z,12.61
2022-12-05T17:32:32.656Z,13.07
2022-12-05T17:35:03.705Z,13.60
2022-12-05T17:37:32.809Z,13.79
2022-12-05T17:39:59.473Z,13.65
2022-12-05T17:42:25.959Z,13.38
2022-12-05T17:44:52.349Z,13.47
2022-12-05T17:47:18.657Z,14.22
2022-12-05T17:49:44.973Z,14.20
2022-12-05T17:52:21.390Z,14.28
2022-12-05T17:54:48.305Z,13.78
2022-12-05T17:57:14.573Z,13.35
2022-12-05T17:59:40.833Z,13.31
2022-12-05T18:02:07.109Z,14.03
2022-12-05T18:04:33.416Z,14.49
2022-12-05T18:06:59.788Z,15.08
2022-12-05T18:09:26.046Z,15.20
2022-12-05T18:11:52.307Z,16.54
2022-12-05T18:14:18.592Z,17.64
2022-12-05T18:16:44.925Z,16.61
2022-12-05T18:19:11.230Z,15.29
2022-12-05T18:21:37.486Z,14.84
2022-12-05T18:24:03.774Z,15.52
2022-12-05T18:26:30.064Z,16.84
2022-12-05T18:28:56.335Z,16.92
2022-12-05T18:31:22.652Z,17.38
2022-12-05T18:33:48.945Z,16.83
2022-12-05T18:36:15.202Z,17.71
2022-12-05T18:38:41.486Z,17.78
2022-12-05T18:41:07.745Z,17.33
2022-12-05T18:43:34.024Z,16.04
2022-12-05T18:46:00.451Z,15.99
2022-12-05T18:48:46.950Z,17.00
2022-12-05T18:51:13.022Z,17.48
2022-12-05T18:53:39.275Z,19.79
2022-12-05T18:56:21.487Z,21.12
2022-12-05T18:58:49.314Z,20.70
2022-12-05T19:01:15.819Z,18.88
2022-12-05T19:03:42.149Z,16.99
2022-12-05T19:06:08.433Z,16.05
2022-12-05T19:08:34.743Z,15.09
2022-12-05T19:11:01.002Z,16.11
2022-12-05T19:13:27.369Z,16.24
2022-12-05T19:15:53.635Z,16.42
2022-12-05T19:18:19.941Z,17.23
2022-12-05T19:20:46.289Z,17.08
2022-12-05T19:23:12.546Z,17.17
2022-12-05T19:25:38.810Z,17.20
2022-12-05T19:28:05.071Z,16.63
2022-12-05T19:30:31.332Z,16.93
2022-12-05T19:32:57.582Z,16.87
2022-12-05T19:35:23.836Z,17.10
2022-12-05T19:37:50.105Z,17.17
2022-12-05T19:40:16.390Z,16.91
2022-12-05T19:42:42.658Z,17.35
2022-12-05T19:45:12.239Z,17.83
2022-12-05T19:47:41.212Z,18.15
2022-12-05T19:50:07.490Z,17.05
2022-12-05T19:52:33.749Z,17.49
2022-12-05T19:55:00.039Z,16.87
2022-12-05T19:57:31.055Z,17.54
2022-12-05T19:59:57.935Z,17.11
2022-12-05T20:02:24.566Z,17.10
2022-12-05T20:04:50.869Z,17.87
2022-12-05T20:07:17.323Z,17.43
2022-12-05T20:09:43.577Z,17.55
2022-12-05T20:12:09.852Z,16.59
2022-12-05T20:14:36.124Z,16.75
2022-12-05T20:17:02.481Z,17.91
2022-12-05T20:19:28.762Z,18.74
2022-12-05T20:21:55.035Z,17.17
2022-12-05T20:24:21.327Z,16.44
2022-12-05T20:26:47.604Z,16.62
2022-12-05T20:29:13.881Z,17.09
2022-12-05T20:31:40.187Z,16.19
2022-12-05T20:34:06.445Z,15.71
2022-12-05T20:36:32.695Z,15.86
2022-12-05T20:38:59.066Z,16.50
2022-12-05T20:41:25.528Z,18.04
2022-12-05T20:43:51.807Z,18.16
2022-12-05T20:46:18.156Z,16.87
2022-12-05T20:48:44.483Z,17.82
2022-12-05T20:51:10.731Z,17.85
2022-12-05T20:53:37.015Z,17.23
2022-12-05T20:56:04.377Z,16.86
2022-12-05T20:58:30.654Z,17.60
2022-12-05T21:00:56.961Z,16.75
2022-12-05T21:03:23.274Z,16.77
2022-12-05T21:05:49.531Z,16.05
2022-12-05T21:08:15.839Z,16.32
2022-12-05T21:10:42.158Z,15.62
2022-12-05T21:13:08.414Z,15.03
2022-12-05T21:15:34.714Z,15.11
2022-12-05T21:18:00.993Z,14.88
2022-12-05T21:20:27.277Z,15.74
2022-12-05T21:22:53.519Z,15.81
2022-12-05T21:25:19.803Z,15.97
2022-12-05T21:27:46.095Z,15.45
2022-12-05T21:30:12.373Z,14.34
2022-12-05T21:32:38.682Z,12.70
2022-12-05T21:35:04.953Z,12.47
2022-12-05T21:37:31.344Z,12.74
2022-12-05T21:39:57.848Z,13.88
2022-12-05T21:42:24.305Z,14.46
2022-12-05T21:44:50.581Z,15.60
2022-12-05T21:47:16.842Z,16.12
2022-12-05T21:49:43.121Z,15.72
2022-12-05T21:52:09.407Z,16.64
2022-12-05T21:54:35.707Z,16.39
2022-12-05T21:57:01.971Z,16.24
2022-12-05T21:59:28.264Z,15.52
2022-12-05T22:01:54.574Z,15.54
2022-12-05T22:04:20.885Z,14.82
2022-12-05T22:06:47.151Z,14.65
2022-12-05T22:09:13.405Z,15.01
2022-12-05T22:11:39.752Z,15.02
2022-12-05T22:14:06.030Z,15.23
2022-12-05T22:16:33.414Z,15.73
2022-12-05T22:19:00.028Z,14.40
2022-12-05T22:21:26.277Z,15.00
2022-12-05T22:23:52.545Z,14.60
2022-12-05T22:26:18.823Z,13.73
2022-12-05T22:28:45.086Z,13.87
2022-12-05T22:31:11.425Z,13.43
2022-12-05T22:33:37.758Z,13.71
2022-12-05T22:36:04.009Z,14.48
2022-12-05T22:38:30.276Z,14.48
2022-12-05T22:40:56.537Z,14.40
2022-12-05T22:43:22.787Z,13.84
2022-12-05T22:45:49.044Z,14.00
2022-12-05T22:48:15.317Z,13.66
2022-12-05T22:50:41.578Z,14.23
2022-12-05T22:53:07.858Z,14.01
2022-12-05T22:55:34.135Z,13.54
2022-12-05T22:58:00.388Z,13.98
2022-12-05T23:00:26.644Z,13.99
2022-12-05T23:02:52.944Z,14.05
2022-12-05T23:05:19.227Z,13.81
2022-12-05T23:07:45.508Z,14.05
2022-12-05T23:10:11.806Z,13.20
2022-12-05T23:12:38.093Z,12.74
2022-12-05T23:15:04.347Z,13.16
2022-12-05T23:17:30.610Z,12.55
2022-12-05T23:19:57.187Z,12.77
2022-12-05T23:22:23.734Z,12.54
2022-12-05T23:24:50.012Z,11.70
2022-12-05T23:27:16.273Z,11.89
2022-12-05T23:29:42.549Z,11.71
2022-12-05T23:32:08.802Z,12.07
2022-12-05T23:34:35.055Z,12.00
2022-12-05T23:37:01.329Z,12.06
2022-12-05T23:39:27.612Z,11.98
2022-12-05T23:41:53.867Z,11.50
2022-12-05T23:44:20.109Z,11.25
2022-12-05T23:46:46.470Z,10.76
2022-12-05T23:49:12.820Z,11.49
2022-12-05T23:51:39.059Z,12.88
2022-12-05T23:54:05.305Z,13.78
2022-12-05T23:56:31.557Z,17.30
2022-12-05T23:58:57.929Z,18.64
